sensor_id;sensor_type;location;lat;lon;timestamp;P1;durP1;ratioP1;P2;durP2;ratioP2
7231;SDS011;3657;49.630;11.018;2023-04-03T00:01:03;4.63;;;4.53;;
7231;SDS011;3657;49.630;11.018;2023-04-03T00:03:30;4.90;;;4.80;;
7231;SDS011;3657;49.630;11.018;2023-04-03T00:05:57;5.50;;;5.37;;
7231;SDS011;3657;49.630;11.018;2023-04-03T00:08:23;5.57;;;5.37;;
7231;SDS011;3657;49.630;11.018;2023-04-03T00:10:50;5.03;;;4.93;;
7231;SDS011;3657;49.630;11.018;2023-04-03T00:13:17;5.37;;;5.17;;
7231;SDS011;3657;49.630;11.018;2023-04-03T00:15:44;5.00;;;4.90;;
7231;SDS011;3657;49.630;11.018;2023-04-03T00:18:12;5.00;;;4.90;;
7231;SDS011;3657;49.630;11.018;2023-04-03T00:20:39;5.47;;;5.27;;
7231;SDS011;3657;49.630;11.018;2023-04-03T00:23:05;5.27;;;5.17;;
7231;SDS011;3657;49.630;11.018;2023-04-03T00:25:32;4.73;;;4.63;;
7231;SDS011;3657;49.630;11.018;2023-04-03T00:27:59;4.97;;;4.87;;
7231;SDS011;3657;49.630;11.018;2023-04-03T00:30:25;5.10;;;4.90;;
7231;SDS011;3657;49.630;11.018;2023-04-03T00:32:52;5.77;;;5.57;;
7231;SDS011;3657;49.630;11.018;2023-04-03T00:35:21;6.10;;;5.90;;
7231;SDS011;3657;49.630;11.018;2023-04-03T00:37:50;5.60;;;5.40;;
7231;SDS011;3657;49.630;11.018;2023-04-03T00:40:17;5.07;;;4.97;;
7231;SDS011;3657;49.630;11.018;2023-04-03T00:42:45;4.97;;;4.87;;
7231;SDS011;3657;49.630;11.018;2023-04-03T00:45:23;5.87;;;5.67;;
7231;SDS011;3657;49.630;11.018;2023-04-03T00:47:53;5.50;;;5.30;;
7231;SDS011;3657;49.630;11.018;2023-04-03T00:50:22;5.50;;;5.37;;
7231;SDS011;3657;49.630;11.018;2023-04-03T00:52:49;5.67;;;5.47;;
7231;SDS011;3657;49.630;11.018;2023-04-03T00:55:16;5.23;;;5.13;;
7231;SDS011;3657;49.630;11.018;2023-04-03T00:57:43;5.60;;;5.40;;
7231;SDS011;3657;49.630;11.018;2023-04-03T01:00:13;5.70;;;5.50;;
7231;SDS011;3657;49.630;11.018;2023-04-03T01:02:42;5.50;;;5.37;;
7231;SDS011;3657;49.630;11.018;2023-04-03T01:05:09;5.73;;;5.53;;
7231;SDS011;3657;49.630;11.018;2023-04-03T01:07:39;5.53;;;5.43;;
7231;SDS011;3657;49.630;11.018;2023-04-03T01:10:08;5.40;;;5.20;;
7231;SDS011;3657;49.630;11.018;2023-04-03T01:12:39;5.20;;;5.10;;
7231;SDS011;3657;49.630;11.018;2023-04-03T01:15:08;4.90;;;4.80;;
7231;SDS011;3657;49.630;11.018;2023-04-03T01:17:37;5.20;;;5.00;;
7231;SDS011;3657;49.630;11.018;2023-04-03T01:20:14;5.23;;;5.13;;
7231;SDS011;3657;49.630;11.018;2023-04-03T01:23:26;5.70;;;5.50;;
7231;SDS011;3657;49.630;11.018;2023-04-03T01:26:02;5.47;;;5.30;;
7231;SDS011;3657;49.630;11.018;2023-04-03T01:28:30;5.57;;;5.47;;
7231;SDS011;3657;49.630;11.018;2023-04-03T01:31:00;5.37;;;5.17;;
7231;SDS011;3657;49.630;11.018;2023-04-03T01:33:35;5.30;;;5.20;;
7231;SDS011;3657;49.630;11.018;2023-04-03T01:36:03;4.83;;;4.73;;
7231;SDS011;3657;49.630;11.018;2023-04-03T01:38:31;5.60;;;5.40;;
7231;SDS011;3657;49.630;11.018;2023-04-03T01:40:57;5.10;;;5.00;;
7231;SDS011;3657;49.630;11.018;2023-04-03T01:43:24;5.80;;;5.50;;
7231;SDS011;3657;49.630;11.018;2023-04-03T01:45:51;5.27;;;5.17;;
7231;SDS011;3657;49.630;11.018;2023-04-03T01:48:19;5.10;;;5.00;;
7231;SDS011;3657;49.630;11.018;2023-04-03T01:50:48;5.93;;;5.73;;
7231;SDS011;3657;49.630;11.018;2023-04-03T01:53:15;4.83;;;4.73;;
7231;SDS011;3657;49.630;11.018;2023-04-03T01:55:41;5.77;;;5.57;;
7231;SDS011;3657;49.630;11.018;2023-04-03T01:58:08;5.07;;;4.83;;
7231;SDS011;3657;49.630;11.018;2023-04-03T02:00:35;5.03;;;4.93;;
7231;SDS011;3657;49.630;11.018;2023-04-03T02:03:02;5.00;;;4.90;;
7231;SDS011;3657;49.630;11.018;2023-04-03T02:05:28;5.33;;;5.13;;
7231;SDS011;3657;49.630;11.018;2023-04-03T02:07:57;5.07;;;4.97;;
7231;SDS011;3657;49.630;11.018;2023-04-03T02:10:23;5.63;;;5.43;;
7231;SDS011;3657;49.630;11.018;2023-04-03T02:12:50;5.13;;;5.03;;
7231;SDS011;3657;49.630;11.018;2023-04-03T02:15:17;5.20;;;5.10;;
7231;SDS011;3657;49.630;11.018;2023-04-03T02:17:43;5.43;;;5.23;;
7231;SDS011;3657;49.630;11.018;2023-04-03T02:20:10;6.00;;;5.80;;
7231;SDS011;3657;49.630;11.018;2023-04-03T02:22:37;5.00;;;4.80;;
7231;SDS011;3657;49.630;11.018;2023-04-03T02:25:05;5.30;;;5.10;;
7231;SDS011;3657;49.630;11.018;2023-04-03T02:27:32;5.17;;;5.07;;
7231;SDS011;3657;49.630;11.018;2023-04-03T02:30:00;5.17;;;4.97;;
7231;SDS011;3657;49.630;11.018;2023-04-03T02:32:26;5.40;;;5.23;;
7231;SDS011;3657;49.630;11.018;2023-04-03T02:34:53;4.77;;;4.53;;
7231;SDS011;3657;49.630;11.018;2023-04-03T02:37:20;5.77;;;5.50;;
7231;SDS011;3657;49.630;11.018;2023-04-03T02:39:46;5.27;;;5.07;;
7231;SDS011;3657;49.630;11.018;2023-04-03T02:42:14;5.03;;;4.93;;
7231;SDS011;3657;49.630;11.018;2023-04-03T02:44:41;5.10;;;4.90;;
7231;SDS011;3657;49.630;11.018;2023-04-03T02:47:08;5.50;;;5.30;;
7231;SDS011;3657;49.630;11.018;2023-04-03T02:49:34;5.53;;;5.33;;
7231;SDS011;3657;49.630;11.018;2023-04-03T02:52:01;4.80;;;4.70;;
7231;SDS011;3657;49.630;11.018;2023-04-03T02:54:28;5.43;;;5.33;;
7231;SDS011;3657;49.630;11.018;2023-04-03T02:56:55;5.43;;;5.23;;
7231;SDS011;3657;49.630;11.018;2023-04-03T02:59:24;5.80;;;5.60;;
7231;SDS011;3657;49.630;11.018;2023-04-03T03:01:50;5.63;;;5.43;;
7231;SDS011;3657;49.630;11.018;2023-04-03T03:04:17;5.00;;;4.80;;
7231;SDS011;3657;49.630;11.018;2023-04-03T03:06:44;4.97;;;4.83;;
7231;SDS011;3657;49.630;11.018;2023-04-03T03:09:11;5.47;;;5.30;;
7231;SDS011;3657;49.630;11.018;2023-04-03T03:11:38;5.13;;;5.00;;
7231;SDS011;3657;49.630;11.018;2023-04-03T03:14:05;5.87;;;5.67;;
7231;SDS011;3657;49.630;11.018;2023-04-03T03:16:33;5.47;;;5.30;;
7231;SDS011;3657;49.630;11.018;2023-04-03T03:19:00;5.60;;;5.40;;
7231;SDS011;3657;49.630;11.018;2023-04-03T03:21:26;6.17;;;5.97;;
7231;SDS011;3657;49.630;11.018;2023-04-03T03:23:53;6.20;;;5.70;;
7231;SDS011;3657;49.630;11.018;2023-04-03T03:26:20;5.83;;;5.63;;
7231;SDS011;3657;49.630;11.018;2023-04-03T03:28:46;5.70;;;5.40;;
7231;SDS011;3657;49.630;11.018;2023-04-03T03:31:13;5.27;;;5.07;;
7231;SDS011;3657;49.630;11.018;2023-04-03T03:33:41;7.23;;;6.93;;
7231;SDS011;3657;49.630;11.018;2023-04-03T03:36:08;7.23;;;7.00;;
7231;SDS011;3657;49.630;11.018;2023-04-03T03:38:35;9.43;;;8.73;;
7231;SDS011;3657;49.630;11.018;2023-04-03T03:41:02;5.60;;;5.40;;
7231;SDS011;3657;49.630;11.018;2023-04-03T03:43:28;6.20;;;6.00;;
7231;SDS011;3657;49.630;11.018;2023-04-03T03:45:55;5.90;;;5.70;;
7231;SDS011;3657;49.630;11.018;2023-04-03T03:48:22;7.03;;;6.67;;
7231;SDS011;3657;49.630;11.018;2023-04-03T03:50:50;6.00;;;5.80;;
7231;SDS011;3657;49.630;11.018;2023-04-03T03:53:17;6.73;;;6.43;;
7231;SDS011;3657;49.630;11.018;2023-04-03T03:55:44;6.73;;;6.43;;
7231;SDS011;3657;49.630;11.018;2023-04-03T03:58:10;6.80;;;6.53;;
7231;SDS011;3657;49.630;11.018;2023-04-03T04:00:37;6.90;;;6.70;;
7231;SDS011;3657;49.630;11.018;2023-04-03T04:03:04;6.27;;;6.07;;
7231;SDS011;3657;49.630;11.018;2023-04-03T04:05:31;5.67;;;5.50;;
7231;SDS011;3657;49.630;11.018;2023-04-03T04:07:59;6.83;;;6.63;;
7231;SDS011;3657;49.630;11.018;2023-04-03T04:10:25;6.93;;;6.70;;
7231;SDS011;3657;49.630;11.018;2023-04-03T04:12:52;7.10;;;6.80;;
7231;SDS011;3657;49.630;11.018;2023-04-03T04:15:19;7.20;;;6.87;;
7231;SDS011;3657;49.630;11.018;2023-04-03T04:17:46;8.20;;;7.90;;
7231;SDS011;3657;49.630;11.018;2023-04-03T04:20:13;7.60;;;7.20;;
7231;SDS011;3657;49.630;11.018;2023-04-03T04:22:40;6.97;;;6.73;;
7231;SDS011;3657;49.630;11.018;2023-04-03T04:25:08;7.23;;;7.00;;
7231;SDS011;3657;49.630;11.018;2023-04-03T04:27:35;8.13;;;7.73;;
7231;SDS011;3657;49.630;11.018;2023-04-03T04:30:02;6.73;;;6.53;;
7231;SDS011;3657;49.630;11.018;2023-04-03T04:32:29;7.20;;;6.90;;
7231;SDS011;3657;49.630;11.018;2023-04-03T04:34:56;7.30;;;7.00;;
7231;SDS011;3657;49.630;11.018;2023-04-03T04:37:23;6.03;;;5.83;;
7231;SDS011;3657;49.630;11.018;2023-04-03T04:39:49;6.53;;;6.33;;
7231;SDS011;3657;49.630;11.018;2023-04-03T04:42:17;6.80;;;6.60;;
7231;SDS011;3657;49.630;11.018;2023-04-03T04:44:44;6.60;;;6.40;;
7231;SDS011;3657;49.630;11.018;2023-04-03T04:47:10;7.60;;;7.10;;
7231;SDS011;3657;49.630;11.018;2023-04-03T04:49:37;8.10;;;7.80;;
7231;SDS011;3657;49.630;11.018;2023-04-03T04:52:04;7.27;;;6.97;;
7231;SDS011;3657;49.630;11.018;2023-04-03T04:54:31;6.70;;;6.40;;
7231;SDS011;3657;49.630;11.018;2023-04-03T04:56:58;6.10;;;5.90;;
7231;SDS011;3657;49.630;11.018;2023-04-03T04:59:25;6.03;;;5.83;;
7231;SDS011;3657;49.630;11.018;2023-04-03T05:01:52;7.67;;;7.33;;
7231;SDS011;3657;49.630;11.018;2023-04-03T05:04:19;7.00;;;6.73;;
7231;SDS011;3657;49.630;11.018;2023-04-03T05:06:46;7.07;;;6.77;;
7231;SDS011;3657;49.630;11.018;2023-04-03T05:09:13;6.90;;;6.70;;
7231;SDS011;3657;49.630;11.018;2023-04-03T05:11:39;6.43;;;6.17;;
7231;SDS011;3657;49.630;11.018;2023-04-03T05:14:06;6.73;;;6.53;;
7231;SDS011;3657;49.630;11.018;2023-04-03T05:16:34;6.57;;;6.37;;
7231;SDS011;3657;49.630;11.018;2023-04-03T05:19:01;8.00;;;7.10;;
7231;SDS011;3657;49.630;11.018;2023-04-03T05:21:28;7.10;;;6.90;;
7231;SDS011;3657;49.630;11.018;2023-04-03T05:23:57;6.27;;;6.07;;
7231;SDS011;3657;49.630;11.018;2023-04-03T05:26:23;7.10;;;6.57;;
7231;SDS011;3657;49.630;11.018;2023-04-03T05:28:51;6.63;;;6.33;;
7231;SDS011;3657;49.630;11.018;2023-04-03T05:31:18;7.90;;;7.50;;
7231;SDS011;3657;49.630;11.018;2023-04-03T05:33:46;6.97;;;6.67;;
7231;SDS011;3657;49.630;11.018;2023-04-03T05:36:14;7.00;;;6.67;;
7231;SDS011;3657;49.630;11.018;2023-04-03T05:38:40;6.93;;;6.63;;
7231;SDS011;3657;49.630;11.018;2023-04-03T05:41:07;6.83;;;6.63;;
7231;SDS011;3657;49.630;11.018;2023-04-03T05:43:34;6.77;;;6.47;;
7231;SDS011;3657;49.630;11.018;2023-04-03T05:46:02;7.53;;;7.10;;
7231;SDS011;3657;49.630;11.018;2023-04-03T05:48:29;6.37;;;6.17;;
7231;SDS011;3657;49.630;11.018;2023-04-03T05:50:57;7.47;;;7.17;;
7231;SDS011;3657;49.630;11.018;2023-04-03T05:53:25;7.37;;;7.07;;
7231;SDS011;3657;49.630;11.018;2023-04-03T05:55:54;8.73;;;7.63;;
7231;SDS011;3657;49.630;11.018;2023-04-03T05:58:21;6.87;;;6.57;;
7231;SDS011;3657;49.630;11.018;2023-04-03T06:00:47;6.83;;;6.63;;
7231;SDS011;3657;49.630;11.018;2023-04-03T06:03:14;7.43;;;7.13;;
7231;SDS011;3657;49.630;11.018;2023-04-03T06:05:41;7.67;;;7.37;;
7231;SDS011;3657;49.630;11.018;2023-04-03T06:08:09;6.80;;;6.50;;
7231;SDS011;3657;49.630;11.018;2023-04-03T06:10:37;6.70;;;6.40;;
7231;SDS011;3657;49.630;11.018;2023-04-03T06:13:04;6.80;;;6.50;;
7231;SDS011;3657;49.630;11.018;2023-04-03T06:15:31;7.93;;;7.70;;
7231;SDS011;3657;49.630;11.018;2023-04-03T06:17:58;7.27;;;7.07;;
7231;SDS011;3657;49.630;11.018;2023-04-03T06:20:25;7.33;;;7.03;;
7231;SDS011;3657;49.630;11.018;2023-04-03T06:22:52;7.17;;;6.73;;
7231;SDS011;3657;49.630;11.018;2023-04-03T06:25:20;7.40;;;7.10;;
7231;SDS011;3657;49.630;11.018;2023-04-03T06:27:46;8.00;;;7.60;;
7231;SDS011;3657;49.630;11.018;2023-04-03T06:30:13;7.57;;;7.27;;
7231;SDS011;3657;49.630;11.018;2023-04-03T06:32:40;7.70;;;7.40;;
7231;SDS011;3657;49.630;11.018;2023-04-03T06:35:08;7.33;;;7.03;;
7231;SDS011;3657;49.630;11.018;2023-04-03T06:37:35;9.23;;;8.77;;
7231;SDS011;3657;49.630;11.018;2023-04-03T06:40:02;8.40;;;7.97;;
7231;SDS011;3657;49.630;11.018;2023-04-03T06:42:31;9.43;;;8.80;;
7231;SDS011;3657;49.630;11.018;2023-04-03T06:44:57;8.43;;;7.97;;
7231;SDS011;3657;49.630;11.018;2023-04-03T06:47:25;8.37;;;7.97;;
7231;SDS011;3657;49.630;11.018;2023-04-03T06:49:52;8.47;;;7.93;;
7231;SDS011;3657;49.630;11.018;2023-04-03T06:52:18;8.93;;;8.37;;
7231;SDS011;3657;49.630;11.018;2023-04-03T06:54:45;8.57;;;8.17;;
7231;SDS011;3657;49.630;11.018;2023-04-03T06:57:12;7.97;;;7.70;;
7231;SDS011;3657;49.630;11.018;2023-04-03T06:59:41;8.53;;;7.83;;
7231;SDS011;3657;49.630;11.018;2023-04-03T07:02:09;9.00;;;8.43;;
7231;SDS011;3657;49.630;11.018;2023-04-03T07:04:37;8.10;;;7.67;;
7231;SDS011;3657;49.630;11.018;2023-04-03T07:07:04;9.53;;;9.13;;
7231;SDS011;3657;49.630;11.018;2023-04-03T07:09:30;9.13;;;8.73;;
7231;SDS011;3657;49.630;11.018;2023-04-03T07:11:57;9.73;;;9.20;;
7231;SDS011;3657;49.630;11.018;2023-04-03T07:14:24;9.00;;;8.60;;
7231;SDS011;3657;49.630;11.018;2023-04-03T07:16:52;9.03;;;8.73;;
7231;SDS011;3657;49.630;11.018;2023-04-03T07:19:19;9.70;;;9.10;;
7231;SDS011;3657;49.630;11.018;2023-04-03T07:21:46;9.87;;;9.37;;
7231;SDS011;3657;49.630;11.018;2023-04-03T07:24:13;9.97;;;9.50;;
7231;SDS011;3657;49.630;11.018;2023-04-03T07:26:39;9.47;;;8.80;;
7231;SDS011;3657;49.630;11.018;2023-04-03T07:29:06;9.47;;;8.93;;
7231;SDS011;3657;49.630;11.018;2023-04-03T07:31:34;9.80;;;9.40;;
7231;SDS011;3657;49.630;11.018;2023-04-03T07:34:02;9.30;;;8.90;;
7231;SDS011;3657;49.630;11.018;2023-04-03T07:36:28;11.07;;;10.43;;
7231;SDS011;3657;49.630;11.018;2023-04-03T07:38:58;10.40;;;9.80;;
7231;SDS011;3657;49.630;11.018;2023-04-03T07:41:24;10.03;;;9.63;;
7231;SDS011;3657;49.630;11.018;2023-04-03T07:43:51;10.83;;;10.07;;
7231;SDS011;3657;49.630;11.018;2023-04-03T07:46:18;7.60;;;7.33;;
7231;SDS011;3657;49.630;11.018;2023-04-03T07:48:45;9.87;;;9.37;;
7231;SDS011;3657;49.630;11.018;2023-04-03T07:51:13;9.07;;;8.73;;
7231;SDS011;3657;49.630;11.018;2023-04-03T07:53:41;10.20;;;9.70;;
7231;SDS011;3657;49.630;11.018;2023-04-03T07:56:08;8.23;;;7.90;;
7231;SDS011;3657;49.630;11.018;2023-04-03T07:58:35;9.03;;;8.70;;
7231;SDS011;3657;49.630;11.018;2023-04-03T08:01:02;8.70;;;8.40;;
7231;SDS011;3657;49.630;11.018;2023-04-03T08:03:29;10.20;;;9.40;;
7231;SDS011;3657;49.630;11.018;2023-04-03T08:06:00;8.50;;;8.00;;
7231;SDS011;3657;49.630;11.018;2023-04-03T08:08:29;10.47;;;9.87;;
7231;SDS011;3657;49.630;11.018;2023-04-03T08:10:57;8.57;;;8.17;;
7231;SDS011;3657;49.630;11.018;2023-04-03T08:13:27;7.93;;;7.53;;
7231;SDS011;3657;49.630;11.018;2023-04-03T08:15:54;7.97;;;7.67;;
7231;SDS011;3657;49.630;11.018;2023-04-03T08:18:22;8.60;;;8.20;;
7231;SDS011;3657;49.630;11.018;2023-04-03T08:20:49;8.60;;;8.20;;
7231;SDS011;3657;49.630;11.018;2023-04-03T08:23:16;9.40;;;8.90;;
7231;SDS011;3657;49.630;11.018;2023-04-03T08:25:44;8.60;;;8.20;;
7231;SDS011;3657;49.630;11.018;2023-04-03T08:28:11;8.90;;;8.50;;
7231;SDS011;3657;49.630;11.018;2023-04-03T08:30:38;7.87;;;7.67;;
7231;SDS011;3657;49.630;11.018;2023-04-03T08:33:05;8.23;;;7.80;;
7231;SDS011;3657;49.630;11.018;2023-04-03T08:35:33;8.27;;;7.87;;
7231;SDS011;3657;49.630;11.018;2023-04-03T08:38:03;8.33;;;8.03;;
7231;SDS011;3657;49.630;11.018;2023-04-03T08:40:30;8.00;;;7.70;;
7231;SDS011;3657;49.630;11.018;2023-04-03T08:43:01;7.83;;;7.33;;
7231;SDS011;3657;49.630;11.018;2023-04-03T08:45:46;8.07;;;7.53;;
7231;SDS011;3657;49.630;11.018;2023-04-03T08:48:17;7.73;;;7.30;;
7231;SDS011;3657;49.630;11.018;2023-04-03T08:50:48;7.70;;;7.30;;
7231;SDS011;3657;49.630;11.018;2023-04-03T08:53:20;6.97;;;6.50;;
7231;SDS011;3657;49.630;11.018;2023-04-03T08:55:49;6.50;;;6.30;;
7231;SDS011;3657;49.630;11.018;2023-04-03T08:58:19;6.00;;;5.80;;
7231;SDS011;3657;49.630;11.018;2023-04-03T09:00:49;6.63;;;6.33;;
7231;SDS011;3657;49.630;11.018;2023-04-03T09:03:20;5.90;;;5.70;;
7231;SDS011;3657;49.630;11.018;2023-04-03T09:05:48;5.80;;;5.50;;
7231;SDS011;3657;49.630;11.018;2023-04-03T09:08:21;7.13;;;6.73;;
7231;SDS011;3657;49.630;11.018;2023-04-03T09:10:51;6.73;;;6.53;;
7231;SDS011;3657;49.630;11.018;2023-04-03T09:13:28;6.67;;;6.47;;
7231;SDS011;3657;49.630;11.018;2023-04-03T09:15:59;7.03;;;6.57;;
7231;SDS011;3657;49.630;11.018;2023-04-03T09:18:33;6.70;;;6.50;;
7231;SDS011;3657;49.630;11.018;2023-04-03T09:21:08;7.00;;;6.63;;
7231;SDS011;3657;49.630;11.018;2023-04-03T09:23:43;6.80;;;6.57;;
7231;SDS011;3657;49.630;11.018;2023-04-03T09:26:13;6.27;;;6.07;;
7231;SDS011;3657;49.630;11.018;2023-04-03T09:28:45;6.17;;;5.97;;
7231;SDS011;3657;49.630;11.018;2023-04-03T09:31:16;5.77;;;5.57;;
7231;SDS011;3657;49.630;11.018;2023-04-03T09:33:46;6.37;;;6.07;;
7231;SDS011;3657;49.630;11.018;2023-04-03T09:36:13;5.97;;;5.73;;
7231;SDS011;3657;49.630;11.018;2023-04-03T09:39:04;6.40;;;6.10;;
7231;SDS011;3657;49.630;11.018;2023-04-03T09:41:31;5.97;;;5.77;;
7231;SDS011;3657;49.630;11.018;2023-04-03T09:43:58;5.17;;;5.03;;
7231;SDS011;3657;49.630;11.018;2023-04-03T09:46:25;5.93;;;5.73;;
7231;SDS011;3657;49.630;11.018;2023-04-03T09:48:57;5.77;;;5.57;;
7231;SDS011;3657;49.630;11.018;2023-04-03T09:51:25;5.73;;;5.53;;
7231;SDS011;3657;49.630;11.018;2023-04-03T09:53:53;5.70;;;5.50;;
7231;SDS011;3657;49.630;11.018;2023-04-03T09:56:23;5.77;;;5.57;;
7231;SDS011;3657;49.630;11.018;2023-04-03T09:58:52;6.10;;;5.90;;
7231;SDS011;3657;49.630;11.018;2023-04-03T10:01:42;5.80;;;5.60;;
7231;SDS011;3657;49.630;11.018;2023-04-03T10:04:11;6.43;;;6.13;;
7231;SDS011;3657;49.630;11.018;2023-04-03T10:06:40;6.20;;;5.93;;
7231;SDS011;3657;49.630;11.018;2023-04-03T10:09:18;6.50;;;6.20;;
7231;SDS011;3657;49.630;11.018;2023-04-03T10:11:58;6.20;;;6.00;;
7231;SDS011;3657;49.630;11.018;2023-04-03T10:14:27;6.77;;;6.57;;
7231;SDS011;3657;49.630;11.018;2023-04-03T10:16:56;5.90;;;5.70;;
7231;SDS011;3657;49.630;11.018;2023-04-03T10:19:34;6.43;;;6.13;;
7231;SDS011;3657;49.630;11.018;2023-04-03T10:22:09;5.93;;;5.53;;
7231;SDS011;3657;49.630;11.018;2023-04-03T10:24:47;6.63;;;6.33;;
7231;SDS011;3657;49.630;11.018;2023-04-03T10:27:22;5.97;;;5.77;;
7231;SDS011;3657;49.630;11.018;2023-04-03T10:29:59;6.83;;;6.57;;
7231;SDS011;3657;49.630;11.018;2023-04-03T10:32:42;5.87;;;5.67;;
7231;SDS011;3657;49.630;11.018;2023-04-03T10:35:18;5.90;;;5.60;;
7231;SDS011;3657;49.630;11.018;2023-04-03T10:37:55;6.17;;;5.97;;
7231;SDS011;3657;49.630;11.018;2023-04-03T10:40:30;5.97;;;5.77;;
7231;SDS011;3657;49.630;11.018;2023-04-03T10:43:06;5.90;;;5.63;;
7231;SDS011;3657;49.630;11.018;2023-04-03T10:45:45;6.40;;;6.03;;
7231;SDS011;3657;49.630;11.018;2023-04-03T10:48:23;6.40;;;6.20;;
7231;SDS011;3657;49.630;11.018;2023-04-03T10:51:00;6.23;;;6.03;;
7231;SDS011;3657;49.630;11.018;2023-04-03T10:53:34;7.07;;;6.80;;
7231;SDS011;3657;49.630;11.018;2023-04-03T10:56:07;6.63;;;6.43;;
7231;SDS011;3657;49.630;11.018;2023-04-03T10:58:40;6.90;;;6.60;;
7231;SDS011;3657;49.630;11.018;2023-04-03T11:01:11;7.10;;;6.80;;
7231;SDS011;3657;49.630;11.018;2023-04-03T11:03:40;6.57;;;6.37;;
7231;SDS011;3657;49.630;11.018;2023-04-03T11:06:10;6.83;;;6.63;;
7231;SDS011;3657;49.630;11.018;2023-04-03T11:08:42;5.93;;;5.73;;
7231;SDS011;3657;49.630;11.018;2023-04-03T11:11:13;5.97;;;5.77;;
7231;SDS011;3657;49.630;11.018;2023-04-03T11:13:45;6.80;;;6.60;;
7231;SDS011;3657;49.630;11.018;2023-04-03T11:16:18;6.23;;;6.03;;
7231;SDS011;3657;49.630;11.018;2023-04-03T11:18:49;6.50;;;6.30;;
7231;SDS011;3657;49.630;11.018;2023-04-03T11:21:21;7.00;;;6.63;;
7231;SDS011;3657;49.630;11.018;2023-04-03T11:23:54;6.30;;;6.07;;
7231;SDS011;3657;49.630;11.018;2023-04-03T11:26:24;7.03;;;6.63;;
7231;SDS011;3657;49.630;11.018;2023-04-03T11:28:58;6.50;;;6.10;;
7231;SDS011;3657;49.630;11.018;2023-04-03T11:31:32;6.33;;;6.03;;
7231;SDS011;3657;49.630;11.018;2023-04-03T11:34:08;5.27;;;5.17;;
7231;SDS011;3657;49.630;11.018;2023-04-03T11:36:48;6.00;;;5.73;;
7231;SDS011;3657;49.630;11.018;2023-04-03T11:39:20;5.80;;;5.60;;
7231;SDS011;3657;49.630;11.018;2023-04-03T11:41:50;5.73;;;5.43;;
7231;SDS011;3657;49.630;11.018;2023-04-03T11:44:29;6.37;;;6.17;;
7231;SDS011;3657;49.630;11.018;2023-04-03T11:46:59;6.17;;;5.97;;
7231;SDS011;3657;49.630;11.018;2023-04-03T11:55:44;5.30;;;5.20;;
7231;SDS011;3657;49.630;11.018;2023-04-03T11:58:18;5.97;;;5.67;;
7231;SDS011;3657;49.630;11.018;2023-04-03T12:09:33;6.17;;;5.97;;
7231;SDS011;3657;49.630;11.018;2023-04-03T12:12:24;5.60;;;5.40;;
7231;SDS011;3657;49.630;11.018;2023-04-03T12:14:54;5.80;;;5.60;;
7231;SDS011;3657;49.630;11.018;2023-04-03T12:17:26;5.77;;;5.57;;
7231;SDS011;3657;49.630;11.018;2023-04-03T12:19:54;5.60;;;5.40;;
7231;SDS011;3657;49.630;11.018;2023-04-03T12:22:21;5.50;;;5.40;;
7231;SDS011;3657;49.630;11.018;2023-04-03T12:24:49;6.23;;;6.03;;
7231;SDS011;3657;49.630;11.018;2023-04-03T12:27:26;5.57;;;5.37;;
7231;SDS011;3657;49.630;11.018;2023-04-03T12:30:12;5.77;;;5.50;;
7231;SDS011;3657;49.630;11.018;2023-04-03T12:32:48;5.87;;;5.57;;
7231;SDS011;3657;49.630;11.018;2023-04-03T12:35:29;5.37;;;5.10;;
7231;SDS011;3657;49.630;11.018;2023-04-03T12:38:14;5.23;;;5.03;;
7231;SDS011;3657;49.630;11.018;2023-04-03T12:40:56;5.07;;;4.97;;
7231;SDS011;3657;49.630;11.018;2023-04-03T12:43:33;5.83;;;5.63;;
7231;SDS011;3657;49.630;11.018;2023-04-03T12:46:10;5.00;;;4.80;;
7231;SDS011;3657;49.630;11.018;2023-04-03T12:48:48;5.60;;;5.40;;
7231;SDS011;3657;49.630;11.018;2023-04-03T12:51:17;5.53;;;5.37;;
7231;SDS011;3657;49.630;11.018;2023-04-03T12:53:47;5.50;;;5.30;;
7231;SDS011;3657;49.630;11.018;2023-04-03T12:56:19;5.90;;;5.70;;
7231;SDS011;3657;49.630;11.018;2023-04-03T12:58:51;5.33;;;5.13;;
7231;SDS011;3657;49.630;11.018;2023-04-03T13:01:20;4.90;;;4.70;;
7231;SDS011;3657;49.630;11.018;2023-04-03T13:03:52;5.47;;;5.27;;
7231;SDS011;3657;49.630;11.018;2023-04-03T13:06:21;5.27;;;5.13;;
7231;SDS011;3657;49.630;11.018;2023-04-03T13:08:51;5.90;;;5.40;;
7231;SDS011;3657;49.630;11.018;2023-04-03T13:11:19;6.03;;;5.67;;
7231;SDS011;3657;49.630;11.018;2023-04-03T13:13:53;6.17;;;5.90;;
7231;SDS011;3657;49.630;11.018;2023-04-03T13:16:21;5.37;;;5.17;;
7231;SDS011;3657;49.630;11.018;2023-04-03T13:18:51;5.53;;;5.43;;
7231;SDS011;3657;49.630;11.018;2023-04-03T13:21:19;5.70;;;5.50;;
7231;SDS011;3657;49.630;11.018;2023-04-03T13:23:49;5.40;;;5.20;;
7231;SDS011;3657;49.630;11.018;2023-04-03T13:26:17;6.40;;;6.00;;
7231;SDS011;3657;49.630;11.018;2023-04-03T13:28:47;5.40;;;5.30;;
7231;SDS011;3657;49.630;11.018;2023-04-03T13:31:18;5.40;;;5.30;;
7231;SDS011;3657;49.630;11.018;2023-04-03T13:33:57;5.13;;;5.03;;
7231;SDS011;3657;49.630;11.018;2023-04-03T13:36:29;5.37;;;5.17;;
7231;SDS011;3657;49.630;11.018;2023-04-03T13:38:58;5.27;;;5.07;;
7231;SDS011;3657;49.630;11.018;2023-04-03T13:41:29;5.67;;;5.47;;
7231;SDS011;3657;49.630;11.018;2023-04-03T13:43:57;5.03;;;4.93;;
7231;SDS011;3657;49.630;11.018;2023-04-03T13:46:42;5.83;;;5.63;;
7231;SDS011;3657;49.630;11.018;2023-04-03T13:49:18;5.60;;;5.30;;
7231;SDS011;3657;49.630;11.018;2023-04-03T13:51:46;5.97;;;5.77;;
7231;SDS011;3657;49.630;11.018;2023-04-03T13:54:18;6.27;;;6.07;;
7231;SDS011;3657;49.630;11.018;2023-04-03T13:56:51;6.20;;;6.00;;
7231;SDS011;3657;49.630;11.018;2023-04-03T13:59:21;5.43;;;5.23;;
7231;SDS011;3657;49.630;11.018;2023-04-03T14:01:50;5.13;;;4.93;;
7231;SDS011;3657;49.630;11.018;2023-04-03T14:04:21;5.17;;;4.97;;
7231;SDS011;3657;49.630;11.018;2023-04-03T14:06:50;5.50;;;5.30;;
7231;SDS011;3657;49.630;11.018;2023-04-03T14:09:17;6.17;;;5.87;;
7231;SDS011;3657;49.630;11.018;2023-04-03T14:11:45;5.47;;;5.37;;
7231;SDS011;3657;49.630;11.018;2023-04-03T14:14:14;5.60;;;5.40;;
7231;SDS011;3657;49.630;11.018;2023-04-03T14:16:44;5.37;;;5.17;;
7231;SDS011;3657;49.630;11.018;2023-04-03T14:19:17;5.13;;;4.97;;
7231;SDS011;3657;49.630;11.018;2023-04-03T14:21:47;5.93;;;5.63;;
7231;SDS011;3657;49.630;11.018;2023-04-03T14:24:15;5.83;;;5.63;;
7231;SDS011;3657;49.630;11.018;2023-04-03T14:26:42;5.63;;;5.53;;
7231;SDS011;3657;49.630;11.018;2023-04-03T14:29:10;5.20;;;5.10;;
7231;SDS011;3657;49.630;11.018;2023-04-03T14:31:38;5.90;;;5.70;;
7231;SDS011;3657;49.630;11.018;2023-04-03T14:34:04;4.80;;;4.60;;
7231;SDS011;3657;49.630;11.018;2023-04-03T14:36:31;5.87;;;5.67;;
7231;SDS011;3657;49.630;11.018;2023-04-03T14:39:00;5.17;;;4.97;;
7231;SDS011;3657;49.630;11.018;2023-04-03T14:41:27;5.60;;;5.40;;
7231;SDS011;3657;49.630;11.018;2023-04-03T14:43:54;5.27;;;5.07;;
7231;SDS011;3657;49.630;11.018;2023-04-03T14:46:21;5.73;;;5.43;;
7231;SDS011;3657;49.630;11.018;2023-04-03T14:48:51;5.37;;;5.17;;
7231;SDS011;3657;49.630;11.018;2023-04-03T14:51:18;5.20;;;5.00;;
7231;SDS011;3657;49.630;11.018;2023-04-03T14:53:44;4.93;;;4.63;;
7231;SDS011;3657;49.630;11.018;2023-04-03T14:56:13;5.00;;;4.90;;
7231;SDS011;3657;49.630;11.018;2023-04-03T14:58:42;5.30;;;5.10;;
7231;SDS011;3657;49.630;11.018;2023-04-03T15:01:10;5.60;;;5.40;;
7231;SDS011;3657;49.630;11.018;2023-04-03T15:03:39;5.07;;;4.97;;
7231;SDS011;3657;49.630;11.018;2023-04-03T15:06:05;5.70;;;5.40;;
7231;SDS011;3657;49.630;11.018;2023-04-03T15:08:34;5.63;;;5.33;;
7231;SDS011;3657;49.630;11.018;2023-04-03T15:11:02;4.80;;;4.70;;
7231;SDS011;3657;49.630;11.018;2023-04-03T15:13:30;4.80;;;4.70;;
7231;SDS011;3657;49.630;11.018;2023-04-03T15:16:41;5.47;;;5.17;;
7231;SDS011;3657;49.630;11.018;2023-04-03T15:18:50;4.90;;;4.70;;
7231;SDS011;3657;49.630;11.018;2023-04-03T15:21:17;5.13;;;4.83;;
7231;SDS011;3657;49.630;11.018;2023-04-03T15:23:44;4.97;;;4.80;;
7231;SDS011;3657;49.630;11.018;2023-04-03T15:26:10;5.10;;;4.90;;
7231;SDS011;3657;49.630;11.018;2023-04-03T15:28:39;5.30;;;5.00;;